x

Molasses Reef, Fl (mlrf1) Weather Station

12:00pm - Wed 10th Feb 2016 All times are EST. -5 hours from GMT.

  • Wind
    7mph, 8mph gusts
  • Sea Temp 73°f
  • Air Temp 59°f
  • Sea Pressure 1023.8mb
  • Molasses Reef, Fl
  • Molasses Reef, Fl

More Historic Weather Station data

Upgrade to MSW Pro to gain access to the past 30 days of data for over 8000 Wavebouys and Weather Stations around the globe.

Join Pro

Comparision Forecast

View Surf forecast
   
Wed 02/10 12:00pm 7 8 mph 1023.8mb 73f 59f
11:00am 11 13 mph 1024.4mb 74f 60f
10:00am 14 15 mph 1023.9mb 74f 60f
9:00am 14 15 mph 1023.2mb 74f 61f
8:00am 14 16 mph 1022.1mb 74f 61f
7:00am 15 18 mph 1021.5mb 74f 61f
6:00am 17 18 mph 1020.8mb 74f 62f
5:00am 16 20 mph 1020.1mb 74f 63f
4:00am 13 15 mph 1019.5mb 74f 62f
3:00am 7 8 mph 1019.3mb 74f 64f
2:00am 7
mph
1019.5mb 74f 64f
1:00am 7 9 mph 1019.6mb 74f 64f
12:00am 9 10 mph 1020.1mb 74f 64f
Tue 02/09 11:00pm 10 13 mph 1019.9mb 74f 64f
10:00pm 11 13 mph 1020.1mb 74f 64f
9:00pm 15 17 mph 1019.8mb 75f 63f
8:00pm 17 20 mph 1019.6mb 75f 63f
7:00pm 20 22 mph 1019.1mb 75f 64f
6:00pm 20 22 mph 1018.5mb 75f 64f
5:00pm 21 23 mph 1017.9mb 74f 64f
4:00pm 20 22 mph 1017.3mb 73f 64f
3:00pm 16 18 mph 1017.3mb 71f 64f
2:00pm 20 23 mph 1017.3mb 72f 64f
1:00pm 21 23 mph 1017.9mb 73f 64f
12:00pm 22 24 mph 1018.5mb 73f 64f
11:00am 18 21 mph 1019.3mb 75f 64f
10:00am 17 20 mph 1019.4mb 75f 64f
9:00am 15 17 mph 1019.1mb 75f 64f
8:00am 21 23 mph 1018.4mb 75f 64f
7:00am 23 25 mph 1017.1mb 75f 64f
6:00am 22 26 mph 1015.7mb 75f 68f
5:00am 25 29 mph 1015.2mb 75f 69f
4:00am 29 34 mph 1014.6mb 75f 70f
3:00am 30 32 mph 1014.3mb 75f 69f
2:00am 28 34 mph 1014.9mb 74f 68f
1:00am 26 30 mph 1015.5mb 74f 68f
12:00am 25 29 mph 1016.1mb 73f 67f
Mon 02/08 11:00pm 23 25 mph 1016.6mb 73f 67f
10:00pm 21 24 mph 1017mb 74f 66f
9:00pm 20 23 mph 1017.4mb 75f 66f
8:00pm 18 22 mph 1017.1mb 74f 65f
7:00pm 15 16 mph 1017mb 74f 63f
6:00pm 15 17 mph 1017.1mb 74f 64f
5:00pm 14 16 mph 1016.9mb 74f 64f
4:00pm 15 16 mph 1017.3mb 74f 63f
3:00pm 7 13 mph 1017.9mb 74f 62f
2:00pm 3 5 mph 1018.8mb 71f 61f
1:00pm 8 9 mph 1019.6mb 71f 60f
12:00pm 8 9 mph 1020.3mb 72f 60f
11:00am 11 14 mph 1020.9mb 71f 58f
10:00am 15 17 mph 1021.1mb 72f 56f
9:00am 15 16 mph 1020.9mb 73f 55f
8:00am 18 22 mph 1019.8mb 74f 54f
7:00am 18 20 mph 1019.3mb 75f 54f
6:00am 17 20 mph 1018.8mb 75f 54f
5:00am 17 20 mph 1018.1mb 75f 54f
4:00am 17 18 mph 1018.1mb 75f 55f
3:00am 21 23 mph 1017.7mb 75f 55f
2:00am 21 22 mph 1018.3mb 74f 56f
1:00am 20 23 mph 1018.8mb 75f 57f
12:00am 22 24 mph 1019.2mb 75f 57f
Sun 02/07 11:00pm 22 25 mph 1019.2mb 75f 57f
10:00pm 24 29 mph 1018.7mb 75f 58f
9:00pm 26 31 mph 1018.1mb 75f 59f
8:00pm 24 28 mph 1017.8mb 75f 58f
7:00pm 26 31 mph 1017.2mb 75f 59f
6:00pm 26 29 mph 1016.9mb 75f 60f
5:00pm 26 30 mph 1016.4mb 76f 60f
4:00pm 26 31 mph 1015.9mb 76f 62f
3:00pm 30 32 mph 1015.8mb 76f 63f
2:00pm 21 24 mph 1016.4mb 76f 61f
1:00pm 21 23 mph 1017.4mb 74f 59f
12:00pm 21 24 mph 1017.8mb 74f 59f
11:00am 18 21 mph 1018.2mb 74f 58f
10:00am 30 34 mph 1018.1mb 74f 57f
9:00am 33 38 mph 1017.1mb 75f 57f
8:00am 22 25 mph 1016.1mb 75f 58f
7:00am 22 25 mph 1015.5mb 75f 59f
6:00am 22 24 mph 1014.8mb 75f 58f
5:00am 26 30 mph 1014.4mb 75f 58f
4:00am 29 33 mph 1014.1mb 76f 60f
3:00am 30 34 mph 1014.8mb 76f 61f
2:00am 26 29 mph 1014.6mb 76f 62f
1:00am 18 21 mph 1015.4mb 77f 64f
12:00am 13 14 mph 1015.8mb 77f 65f
Sat 02/06 11:00pm 20 22 mph 1016.6mb 77f 65f
10:00pm 21 23 mph 1016.7mb 77f 65f
9:00pm 22 23 mph 1016.5mb 77f 66f
8:00pm 14 16 mph 1016.2mb 77f 76f
7:00pm 17 18 mph 1015.9mb 77f 75f